Time;durP1;ratioP1;P1;durP2;ratioP2;P2;SDS_P1;SDS_P2;PMS_P1;PMS_P2;Temp;Humidity;BMP_temperature;BMP_pressure;BME280_temperature;BME280_humidity;BME280_pressure;Samples;Min_cycle;Max_cycle;Signal;HPM_P1;HPM_P2
2024/01/27 00:00:18;;;;;;;;;14.25;9.75;;;;;8.29;59.07;103307.25;4993601;28;45476;-40
2024/01/27 00:02:43;;;;;;;;;10.75;8.00;;;;;8.17;58.84;103284.78;4993638;28;46107;-37
2024/01/27 00:05:09;;;;;;;;;13.25;11.00;;;;;8.24;59.00;103299.50;4992467;28;45393;-38
2024/01/27 00:07:34;;;;;;;;;14.50;12.75;;;;;8.20;58.81;103306.72;4993970;27;45430;-40
2024/01/27 00:10:01;;;;;;;;;13.25;12.25;;;;;8.15;58.78;103294.63;4994021;28;45557;-38
2024/01/27 00:12:26;;;;;;;;;19.00;15.25;;;;;8.11;59.21;103300.97;4993776;28;46790;-38
2024/01/27 00:14:52;;;;;;;;;27.75;18.75;;;;;8.08;60.02;103303.75;4993272;28;45387;-37
2024/01/27 00:17:17;;;;;;;;;28.00;17.75;;;;;8.05;59.84;103304.78;4993900;28;45370;-38
2024/01/27 00:19:42;;;;;;;;;25.00;18.00;;;;;8.01;60.61;103303.19;4993938;28;45447;-37
2024/01/27 00:22:08;;;;;;;;;20.75;17.25;;;;;7.98;60.48;103312.13;4993617;28;46085;-39
2024/01/27 00:24:33;;;;;;;;;24.50;19.25;;;;;7.97;60.80;103322.81;4993440;28;45216;-40
2024/01/27 00:27:00;;;;;;;;;26.00;17.50;;;;;7.91;60.49;103318.59;4993647;28;45456;-39
2024/01/27 00:29:25;;;;;;;;;28.25;24.50;;;;;7.84;60.41;103316.31;4993555;28;45369;-40
2024/01/27 00:31:50;;;;;;;;;31.00;25.00;;;;;7.72;60.19;103307.09;4993226;28;45303;-40
2024/01/27 00:34:16;;;;;;;;;21.50;20.75;;;;;7.67;60.45;103324.97;4992029;28;45395;-39
2024/01/27 00:36:48;;;;;;;;;28.00;23.25;;;;;7.59;60.57;103321.78;4993677;28;45414;-39
2024/01/27 00:39:14;;;;;;;;;33.25;21.75;;;;;7.57;61.89;103326.28;4992390;28;45316;-40
2024/01/27 00:41:39;;;;;;;;;41.00;30.50;;;;;7.52;61.54;103309.72;4993070;28;45425;-39
2024/01/27 00:44:05;;;;;;;;;19.50;15.00;;;;;7.50;61.73;103308.00;4993224;28;45671;-44
2024/01/27 00:46:30;;;;;;;;;34.50;29.50;;;;;7.48;61.62;103309.84;4993146;28;45437;-39
2024/01/27 00:48:55;;;;;;;;;36.50;28.75;;;;;7.41;62.36;103308.34;4993021;28;45328;-39
2024/01/27 00:51:21;;;;;;;;;29.75;26.50;;;;;7.39;62.04;103309.38;5008163;28;46670;-40
2024/01/27 00:53:46;;;;;;;;;33.50;28.00;;;;;7.38;62.51;103318.25;4993087;28;45416;-40
2024/01/27 00:56:12;;;;;;;;;31.75;27.00;;;;;7.36;63.39;103320.06;4993686;28;45274;-39
2024/01/27 00:58:38;;;;;;;;;30.50;27.50;;;;;7.35;63.60;103311.28;4996293;28;45276;-40
2024/01/27 01:01:03;;;;;;;;;36.00;26.25;;;;;7.27;62.39;103291.31;4995485;28;45999;-39
2024/01/27 01:03:29;;;;;;;;;36.00;25.00;;;;;7.36;63.68;103307.69;4996030;28;45489;-39
2024/01/27 01:05:54;;;;;;;;;24.00;21.75;;;;;7.30;63.88;103299.16;4995953;28;45507;-37
2024/01/27 01:08:19;;;;;;;;;43.25;28.50;;;;;7.35;63.86;103307.75;4996331;28;45393;-38
2024/01/27 01:10:45;;;;;;;;;46.00;36.75;;;;;7.38;64.28;103312.94;4995898;28;47129;-37
2024/01/27 01:13:10;;;;;;;;;42.50;35.25;;;;;7.12;64.44;103266.31;4996114;28;45317;-38
2024/01/27 01:15:36;;;;;;;;;43.00;34.50;;;;;7.36;64.70;103304.19;4995975;28;45478;-38
2024/01/27 01:18:02;;;;;;;;;42.00;35.50;;;;;7.34;64.78;103293.66;4996355;28;45392;-39
2024/01/27 01:20:27;;;;;;;;;41.75;31.25;;;;;7.35;64.88;103290.09;4996085;28;45902;-37
2024/01/27 01:22:53;;;;;;;;;61.50;42.75;;;;;7.35;64.35;103295.38;4995907;28;45439;-41
2024/01/27 01:25:18;;;;;;;;;52.25;41.75;;;;;7.31;65.02;103279.69;4995894;28;45403;-38
2024/01/27 01:27:45;;;;;;;;;47.25;38.50;;;;;7.34;64.96;103290.16;4996279;28;45416;-38
2024/01/27 01:30:10;;;;;;;;;54.50;45.50;;;;;7.29;65.07;103271.81;4995782;28;46663;-38
2024/01/27 01:32:36;;;;;;;;;57.50;44.50;;;;;7.30;64.72;103278.84;4995868;28;45239;-39
2024/01/27 01:35:01;;;;;;;;;55.50;42.50;;;;;7.27;65.18;103286.03;4996084;28;45242;-38
2024/01/27 01:37:26;;;;;;;;;56.50;44.00;;;;;7.16;66.34;103275.88;4996136;28;45346;-38
2024/01/27 01:39:52;;;;;;;;;62.00;45.00;;;;;7.22;66.20;103283.56;4995574;28;46229;-38
2024/01/27 01:42:18;;;;;;;;;61.50;45.25;;;;;7.22;65.94;103286.22;4995718;28;45377;-38
2024/01/27 01:44:43;;;;;;;;;51.25;44.00;;;;;7.12;64.71;103277.81;4995802;28;45240;-38
2024/01/27 01:47:08;;;;;;;;;54.75;47.00;;;;;7.07;65.74;103281.53;4995981;28;45321;-38
2024/01/27 01:49:35;;;;;;;;;57.25;47.25;;;;;7.09;66.03;103291.16;5080588;27;48298;-38
2024/01/27 01:52:01;;;;;;;;;59.75;46.50;;;;;7.06;66.40;103285.97;4995472;28;45170;-38
2024/01/27 01:54:27;;;;;;;;;59.25;42.75;;;;;7.02;65.99;103280.88;4995509;28;45341;-38
2024/01/27 01:56:57;;;;;;;;;64.00;48.75;;;;;6.94;65.90;103282.03;4995839;28;45424;-38
2024/01/27 01:59:23;;;;;;;;;60.00;45.75;;;;;6.91;66.57;103286.56;4995434;28;45369;-36
2024/01/27 02:01:48;;;;;;;;;62.50;46.50;;;;;6.87;67.15;103279.69;4994147;28;45540;-38
2024/01/27 02:04:13;;;;;;;;;54.00;44.25;;;;;6.82;66.75;103287.78;4995852;28;45295;-38
2024/01/27 02:06:39;;;;;;;;;52.75;43.00;;;;;6.78;66.55;103302.06;4995639;28;45408;-38
2024/01/27 02:09:05;;;;;;;;;60.50;46.25;;;;;6.71;66.16;103304.09;4995074;28;46293;-38
2024/01/27 02:11:30;;;;;;;;;65.00;49.75;;;;;6.66;66.13;103303.44;4995356;28;45461;-38
2024/01/27 02:13:55;;;;;;;;;61.25;48.25;;;;;6.60;67.12;103298.34;4995239;28;45419;-38
2024/01/27 02:16:21;;;;;;;;;63.00;44.75;;;;;6.60;67.97;103297.50;4995594;28;45311;-38
2024/01/27 02:18:47;;;;;;;;;51.25;44.50;;;;;6.54;67.61;103288.03;4995178;28;46922;-38
2024/01/27 02:21:12;;;;;;;;;61.50;47.50;;;;;6.56;67.04;103291.44;4995144;28;45486;-37
2024/01/27 02:23:37;;;;;;;;;51.00;43.50;;;;;6.54;67.23;103282.72;4995559;28;45351;-36
2024/01/27 02:26:02;;;;;;;;;55.50;45.25;;;;;6.52;67.22;103284.56;4995530;28;45303;-39
2024/01/27 02:28:31;;;;;;;;;61.50;48.00;;;;;6.50;67.36;103275.84;4995141;28;46082;-38
2024/01/27 02:30:57;;;;;;;;;60.25;45.25;;;;;6.43;68.14;103283.13;4994798;28;45181;-38
2024/01/27 02:33:23;;;;;;;;;61.75;48.00;;;;;6.44;67.82;103281.34;4995280;28;45367;-38
2024/01/27 02:35:48;;;;;;;;;67.25;48.25;;;;;6.41;68.26;103284.13;4995448;28;45232;-38
2024/01/27 02:38:13;;;;;;;;;65.00;51.75;;;;;6.40;68.09;103270.00;4995085;28;46606;-37
2024/01/27 02:40:38;;;;;;;;;71.75;51.00;;;;;6.36;68.14;103272.81;4995251;28;45345;-38
2024/01/27 02:43:04;;;;;;;;;65.75;52.50;;;;;6.36;68.15;103272.81;4995039;28;45291;-38
2024/01/27 02:45:29;;;;;;;;;51.50;38.00;;;;;6.34;68.29;103269.41;4995200;28;45257;-38
2024/01/27 02:47:54;;;;;;;;;71.25;53.50;;;;;6.33;68.62;103268.53;4994723;28;45578;-38
2024/01/27 02:50:20;;;;;;;;;66.00;50.75;;;;;6.31;68.73;103266.84;4994662;28;45371;-39
2024/01/27 02:52:45;;;;;;;;;67.00;49.00;;;;;6.27;68.24;103268.75;4995064;28;45362;-38
2024/01/27 02:55:10;;;;;;;;;68.00;52.25;;;;;6.29;68.13;103276.63;4995222;28;45447;-38
2024/01/27 02:57:36;;;;;;;;;65.00;51.50;;;;;6.22;68.56;103266.28;4994750;28;45962;-37
2024/01/27 03:00:01;;;;;;;;;65.25;49.00;;;;;6.21;68.83;103259.28;4994840;28;45465;-38
2024/01/27 03:02:27;;;;;;;;;72.75;52.75;;;;;6.20;69.29;103256.69;4994644;28;45301;-38
2024/01/27 03:04:52;;;;;;;;;78.25;58.00;;;;;6.22;69.55;103268.91;4995005;28;45410;-38
2024/01/27 03:07:17;;;;;;;;;70.50;52.75;;;;;6.23;70.11;103273.28;4994684;28;45475;-39
2024/01/27 03:09:43;;;;;;;;;72.25;51.75;;;;;6.22;69.06;103282.13;4994626;28;45412;-39
2024/01/27 03:12:08;;;;;;;;;73.75;57.50;;;;;6.22;69.29;103279.50;4994511;28;45448;-38
2024/01/27 03:14:34;;;;;;;;;67.00;48.00;;;;;6.22;69.78;103263.63;4994910;28;45472;-38
2024/01/27 03:16:59;;;;;;;;;81.25;55.25;;;;;6.14;69.66;103251.63;4994392;28;45266;-38
2024/01/27 03:19:24;;;;;;;;;63.00;51.75;;;;;6.23;69.11;103261.84;4993663;28;45350;-38
2024/01/27 03:21:49;;;;;;;;;69.25;55.00;;;;;6.18;70.55;103259.38;4994480;28;45409;-37
2024/01/27 03:24:15;;;;;;;;;76.75;55.25;;;;;6.21;70.23;103255.78;4994801;28;45329;-39
2024/01/27 03:26:40;;;;;;;;;70.75;55.50;;;;;6.17;68.96;103257.66;4994531;28;46009;-37
2024/01/27 03:29:06;;;;;;;;;67.50;54.00;;;;;6.11;70.02;103249.09;4994612;28;45220;-36
2024/01/27 03:31:32;;;;;;;;;72.25;54.50;;;;;6.05;69.91;103250.19;4994407;28;45211;-39
2024/01/27 03:34:02;;;;;;;;;71.50;54.00;;;;;6.05;69.44;103262.53;4994813;28;45448;-39
2024/01/27 03:36:28;;;;;;;;;74.00;58.50;;;;;6.01;70.19;103261.78;4994674;28;45413;-38
2024/01/27 03:38:56;;;;;;;;;73.00;57.00;;;;;5.97;70.29;103268.94;4994483;28;45334;-36
2024/01/27 03:41:21;;;;;;;;;66.50;54.00;;;;;5.93;70.22;103259.41;4994429;28;45303;-37
2024/01/27 03:43:46;;;;;;;;;78.00;56.50;;;;;5.89;70.71;103248.97;4994533;28;45354;-38
2024/01/27 03:46:12;;;;;;;;;77.25;58.25;;;;;5.92;70.41;103256.84;4993918;28;53183;-38
2024/01/27 03:48:37;;;;;;;;;68.75;52.00;;;;;5.86;70.48;103246.47;4994392;28;45351;-38
2024/01/27 03:51:03;;;;;;;;;72.75;55.25;;;;;5.88;70.28;103255.19;4994137;28;45385;-37
2024/01/27 03:53:28;;;;;;;;;72.75;58.00;;;;;5.88;70.51;103256.03;4994469;28;45565;-39
2024/01/27 03:55:54;;;;;;;;;66.50;50.00;;;;;5.87;70.03;103249.03;4994039;28;45506;-38
2024/01/27 03:58:19;;;;;;;;;73.00;56.00;;;;;5.83;70.51;103243.94;4994124;28;45329;-37
2024/01/27 04:00:45;;;;;;;;;73.75;55.00;;;;;5.75;71.11;103249.47;4994274;28;45369;-38
2024/01/27 04:03:10;;;;;;;;;56.00;39.75;;;;;5.71;70.89;103255.78;4994448;28;45357;-38
2024/01/27 04:05:36;;;;;;;;;68.75;53.25;;;;;5.61;70.91;103238.53;4994004;28;45395;-38
2024/01/27 04:08:02;;;;;;;;;73.00;53.00;;;;;5.62;71.40;103253.47;4993657;28;45330;-38
2024/01/27 04:10:27;;;;;;;;;73.50;59.00;;;;;5.59;70.37;103249.13;4992696;28;45375;-37
2024/01/27 04:12:53;;;;;;;;;69.50;54.00;;;;;5.57;70.88;103253.63;4994356;28;45425;-38
2024/01/27 04:15:18;;;;;;;;;72.75;56.75;;;;;5.50;70.93;103250.31;4993846;28;47043;-38
2024/01/27 04:17:43;;;;;;;;;79.00;59.00;;;;;5.46;71.02;103242.56;4993673;28;45455;-38
2024/01/27 04:20:09;;;;;;;;;75.00;57.50;;;;;5.42;70.97;103244.44;4994065;28;45746;-38
2024/01/27 04:22:35;;;;;;;;;66.75;50.75;;;;;5.39;71.74;103243.66;4994150;28;45433;-38
2024/01/27 04:25:01;;;;;;;;;71.75;56.25;;;;;5.33;71.12;103257.09;4993615;28;46206;-38
2024/01/27 04:27:27;;;;;;;;;79.50;60.25;;;;;5.32;71.28;103258.00;4993732;28;45308;-39
2024/01/27 04:29:53;;;;;;;;;75.50;58.25;;;;;5.22;71.26;103246.88;4993815;28;45209;-38
2024/01/27 04:32:18;;;;;;;;;71.25;54.50;;;;;5.19;71.23;103242.59;4993748;28;45441;-38
2024/01/27 04:34:44;;;;;;;;;75.50;55.50;;;;;5.17;71.08;103252.31;4993725;28;47040;-37
2024/01/27 04:37:09;;;;;;;;;74.00;55.00;;;;;5.19;72.09;103268.97;4993906;28;45428;-37
2024/01/27 04:39:34;;;;;;;;;70.50;53.00;;;;;5.16;72.17;103266.41;4993643;28;45317;-38
2024/01/27 04:42:00;;;;;;;;;61.75;48.75;;;;;5.23;72.01;103277.66;4993892;28;45365;-38
2024/01/27 04:44:25;;;;;;;;;73.25;54.00;;;;;5.24;71.77;103279.38;4993489;28;46619;-43
2024/01/27 04:46:50;;;;;;;;;84.25;61.50;;;;;5.23;71.63;103275.88;4993065;28;45526;-38
2024/01/27 04:49:16;;;;;;;;;75.25;56.25;;;;;5.21;71.90;103269.75;4993402;28;45678;-39
2024/01/27 04:51:41;;;;;;;;;73.25;54.25;;;;;5.20;72.17;103269.81;4993755;28;45426;-39
2024/01/27 04:54:07;;;;;;;;;74.75;55.50;;;;;5.18;71.91;103261.97;4993286;28;46587;-39
2024/01/27 04:56:32;;;;;;;;;80.25;58.25;;;;;5.16;71.63;103255.00;4993493;28;45389;-39
2024/01/27 04:58:58;;;;;;;;;75.75;55.00;;;;;5.14;72.00;103256.81;4993846;28;46414;-39
2024/01/27 05:01:23;;;;;;;;;74.00;57.50;;;;;5.13;72.21;103270.94;4993262;28;45374;-38
2024/01/27 05:03:48;;;;;;;;;76.50;58.25;;;;;5.04;71.87;103266.81;4993005;28;47109;-40
2024/01/27 05:06:14;;;;;;;;;72.25;56.00;;;;;5.01;72.40;103266.91;4993383;28;45280;-39
2024/01/27 05:08:39;;;;;;;;;72.25;55.75;;;;;5.02;72.39;103270.44;4993205;28;45266;-39
2024/01/27 05:11:05;;;;;;;;;74.50;55.25;;;;;5.04;72.24;103280.00;4993561;28;45406;-39
2024/01/27 05:13:30;;;;;;;;;72.75;56.00;;;;;5.01;73.38;103277.44;4992990;28;45639;-39
2024/01/27 05:15:56;;;;;;;;;74.50;57.25;;;;;4.99;72.60;103271.38;4992729;28;45403;-39
2024/01/27 05:18:21;;;;;;;;;69.25;54.75;;;;;4.99;72.97;103289.84;4993065;28;45465;-39
2024/01/27 05:20:47;;;;;;;;;68.00;56.50;;;;;4.89;73.14;103275.22;4993222;28;45425;-39
2024/01/27 05:23:12;;;;;;;;;75.50;55.00;;;;;4.93;73.31;103277.72;4992792;28;46282;-37
2024/01/27 05:25:39;;;;;;;;;67.00;53.25;;;;;4.92;72.32;103280.38;4992603;28;45334;-38
2024/01/27 05:28:04;;;;;;;;;69.75;53.50;;;;;4.91;73.08;103276.03;4992786;28;45395;-39
2024/01/27 05:30:30;;;;;;;;;71.50;52.25;;;;;4.94;72.36;103286.50;4992558;28;45420;-38
2024/01/27 05:32:55;;;;;;;;;78.75;54.25;;;;;4.91;73.03;103281.31;4992247;28;46295;-39
2024/01/27 05:35:20;;;;;;;;;75.50;56.75;;;;;4.95;73.15;103288.22;5007514;28;45400;-38
2024/01/27 05:37:46;;;;;;;;;74.50;54.25;;;;;4.93;72.70;103275.09;4992502;28;45475;-39
2024/01/27 05:40:12;;;;;;;;;69.25;53.25;;;;;4.93;73.17;103274.19;4992669;28;45416;-38
2024/01/27 05:42:37;;;;;;;;;75.50;55.00;;;;;4.90;72.71;103271.69;4992417;28;45355;-39
2024/01/27 05:45:03;;;;;;;;;70.25;54.25;;;;;4.90;73.10;103274.31;4995236;28;45407;-38
2024/01/27 05:47:28;;;;;;;;;68.75;53.00;;;;;4.88;72.91;103276.13;4995636;28;45521;-38
2024/01/27 05:49:54;;;;;;;;;73.50;52.75;;;;;4.83;73.26;103267.50;4995546;28;45436;-36
2024/01/27 05:52:19;;;;;;;;;75.75;56.75;;;;;4.83;73.86;103265.72;4995098;28;45321;-39
2024/01/27 05:54:44;;;;;;;;;73.75;57.00;;;;;4.82;73.84;103273.69;4995399;28;45284;-37
2024/01/27 05:57:10;;;;;;;;;74.00;56.75;;;;;4.83;73.84;103275.41;4995574;28;45323;-38
2024/01/27 05:59:35;;;;;;;;;66.25;53.25;;;;;4.72;74.26;103244.09;4995788;28;45585;-38
2024/01/27 06:02:01;;;;;;;;;68.50;51.50;;;;;4.84;72.39;103263.94;4994763;28;49459;-38
2024/01/27 06:04:27;;;;;;;;;70.50;54.50;;;;;4.81;74.32;103258.78;4995269;28;46037;-39
2024/01/27 06:06:52;;;;;;;;;70.75;53.75;;;;;4.78;74.26;103250.97;4995727;28;45445;-39
2024/01/27 06:09:17;;;;;;;;;70.50;55.50;;;;;4.84;74.05;103264.78;4995648;28;45215;-37
2024/01/27 06:11:43;;;;;;;;;68.75;55.00;;;;;4.80;73.67;103265.81;4995351;28;45366;-39
2024/01/27 06:14:08;;;;;;;;;66.00;45.75;;;;;4.81;73.42;103267.56;4994056;28;45299;-37
2024/01/27 06:16:35;;;;;;;;;72.00;53.00;;;;;4.79;73.55;103274.63;4995318;28;45629;-38
2024/01/27 06:19:00;;;;;;;;;69.50;57.00;;;;;4.77;73.42;103272.97;4995476;28;45389;-38
2024/01/27 06:21:26;;;;;;;;;63.75;49.25;;;;;4.74;73.89;103273.91;5010148;28;46716;-39
2024/01/27 06:23:51;;;;;;;;;79.75;56.25;;;;;4.72;73.44;103284.53;4995319;28;45370;-39
2024/01/27 06:26:16;;;;;;;;;71.25;56.75;;;;;4.66;73.86;103279.41;4995354;28;45417;-38
2024/01/27 06:28:42;;;;;;;;;71.00;54.75;;;;;4.66;73.75;103275.91;4995427;28;45338;-37
2024/01/27 06:31:07;;;;;;;;;71.00;53.00;;;;;4.58;73.43;103264.75;4994819;28;50382;-39
2024/01/27 06:33:35;;;;;;;;;71.50;55.25;;;;;4.61;74.55;103269.94;4994853;28;45413;-38
2024/01/27 06:36:01;;;;;;;;;73.50;55.75;;;;;4.55;73.73;103263.06;4995131;28;45446;-38
2024/01/27 06:38:27;;;;;;;;;71.75;54.75;;;;;4.57;73.88;103274.44;4995539;28;45307;-39
2024/01/27 06:40:52;;;;;;;;;68.75;54.75;;;;;4.46;74.80;103255.41;4994866;28;46335;-38
2024/01/27 06:43:17;;;;;;;;;67.25;53.25;;;;;4.52;73.76;103271.06;4994737;28;45330;-37
2024/01/27 06:45:43;;;;;;;;;56.50;42.00;;;;;4.48;74.23;103269.44;4994949;28;45260;-37
2024/01/27 06:48:08;;;;;;;;;73.50;57.00;;;;;4.48;74.02;103269.44;4995012;28;45525;-39
2024/01/27 06:50:34;;;;;;;;;72.50;54.00;;;;;4.40;74.99;103268.78;4994619;28;46187;-38
2024/01/27 06:52:59;;;;;;;;;68.25;53.75;;;;;4.43;75.12;103271.34;4994777;28;45278;-38
2024/01/27 06:55:25;;;;;;;;;67.00;51.25;;;;;4.41;75.17;103270.50;4993639;28;45451;-37
2024/01/27 06:57:50;;;;;;;;;58.25;50.75;;;;;4.42;74.50;103277.50;4995066;28;45355;-38
2024/01/27 07:00:16;;;;;;;;;73.50;55.75;;;;;4.43;75.09;103279.25;4994535;28;47240;-37
2024/01/27 07:02:42;;;;;;;;;69.75;52.75;;;;;4.44;74.95;103270.44;4994547;28;45485;-38
2024/01/27 07:05:08;;;;;;;;;75.00;55.75;;;;;4.37;75.15;103259.19;4994668;28;45400;-39
2024/01/27 07:07:33;;;;;;;;;64.75;49.75;;;;;4.42;74.36;103272.22;4994912;28;45497;-38
2024/01/27 07:09:59;;;;;;;;;69.25;56.25;;;;;4.37;74.64;103256.56;4994580;28;45307;-38
2024/01/27 07:12:25;;;;;;;;;69.50;51.75;;;;;4.40;73.96;103258.25;4994556;28;45482;-38
2024/01/27 07:14:54;;;;;;;;;67.00;47.25;;;;;4.40;74.87;103258.25;4994579;28;45414;-37
2024/01/27 07:17:20;;;;;;;;;67.00;50.00;;;;;4.40;75.11;103259.09;4994789;28;45394;-39
2024/01/27 07:19:45;;;;;;;;;76.75;52.75;;;;;4.41;74.58;103259.97;4994199;28;45871;-39
2024/01/27 07:22:10;;;;;;;;;73.00;53.00;;;;;4.37;74.49;103261.81;5079538;27;45388;-37
2024/01/27 07:24:36;;;;;;;;;73.25;51.50;;;;;4.36;75.23;103267.16;4994536;28;45474;-38
2024/01/27 07:27:02;;;;;;;;;63.50;50.00;;;;;4.38;75.30;103275.84;4994809;28;45550;-39
2024/01/27 07:29:28;;;;;;;;;48.25;39.75;;;;;4.30;73.86;103267.31;4994278;28;46009;-39
2024/01/27 07:31:53;;;;;;;;;64.25;44.75;;;;;4.37;75.32;103279.41;4994434;28;45203;-38
2024/01/27 07:34:19;;;;;;;;;48.50;40.50;;;;;4.36;74.23;103281.19;4994246;28;45445;-39
2024/01/27 07:36:44;;;;;;;;;39.50;36.00;;;;;4.32;73.99;103284.81;4993198;28;45516;-39
2024/01/27 07:39:10;;;;;;;;;37.50;33.00;;;;;4.31;73.05;103291.00;4994234;28;46170;-38
2024/01/27 07:41:35;;;;;;;;;42.25;31.75;;;;;4.28;74.02;103280.53;4994115;28;45435;-39
2024/01/27 07:44:09;;;;;;;;;50.25;36.00;;;;;4.30;74.50;103284.00;4994435;28;45350;-39
2024/01/27 07:46:34;;;;;;;;;38.50;33.75;;;;;4.31;73.83;103288.38;4994845;28;45445;-38
2024/01/27 07:49:00;;;;;;;;;35.00;34.75;;;;;4.36;73.64;103289.09;4994074;28;45549;-39
2024/01/27 07:51:25;;;;;;;;;44.25;31.50;;;;;4.33;74.70;103288.31;4994592;28;45233;-40
2024/01/27 07:53:50;;;;;;;;;37.25;30.75;;;;;4.35;73.88;103286.50;4994476;28;45264;-39
2024/01/27 07:56:15;;;;;;;;;27.75;26.75;;;;;4.35;74.39;103283.88;4994708;28;45825;-39
2024/01/27 07:58:41;;;;;;;;;31.00;26.50;;;;;4.32;74.30;103282.19;4994293;28;47416;-39
2024/01/27 08:01:07;;;;;;;;;33.25;31.25;;;;;4.28;73.79;103275.28;4994079;28;45353;-40
2024/01/27 08:03:32;;;;;;;;;28.50;22.25;;;;;4.37;73.38;103275.00;4992654;28;45476;-40
2024/01/27 08:05:58;;;;;;;;;35.00;31.00;;;;;4.39;73.25;103285.53;4993700;28;45296;-39
2024/01/27 08:08:23;;;;;;;;;36.00;30.50;;;;;4.37;73.50;103274.13;4994039;28;46003;-39
2024/01/27 08:10:48;;;;;;;;;28.75;26.25;;;;;4.43;73.36;103284.53;4992845;28;45458;-40
2024/01/27 08:13:14;;;;;;;;;17.00;17.00;;;;;4.43;72.83;103282.75;4994364;28;45450;-37
2024/01/27 08:15:39;;;;;;;;;29.50;23.75;;;;;4.51;73.48;103298.34;4994450;28;45400;-40
2024/01/27 08:18:04;;;;;;;;;29.00;25.00;;;;;4.56;73.41;103298.22;4994006;28;46720;-38
2024/01/27 08:20:30;;;;;;;;;27.25;22.75;;;;;4.48;72.28;103282.59;4993891;28;46092;-40
2024/01/27 08:22:55;;;;;;;;;30.75;25.75;;;;;4.58;72.54;103301.66;4993997;28;45378;-40
2024/01/27 08:25:21;;;;;;;;;28.00;21.75;;;;;4.62;72.92;103295.38;4994220;28;45300;-40
2024/01/27 08:27:46;;;;;;;;;25.25;23.75;;;;;4.64;72.30;103293.56;4993638;28;46029;-40
2024/01/27 08:30:12;;;;;;;;;17.00;17.00;;;;;4.60;72.42;103284.03;4993854;28;45480;-39
2024/01/27 08:32:37;;;;;;;;;29.50;25.75;;;;;4.71;72.47;103297.72;4994013;28;45441;-37
2024/01/27 08:35:03;;;;;;;;;22.75;20.00;;;;;4.74;72.53;103293.22;4993595;28;45548;-40
2024/01/27 08:37:28;;;;;;;;;25.50;22.00;;;;;4.61;72.34;103265.50;4993397;28;46346;-39
2024/01/27 08:39:54;;;;;;;;;25.00;22.25;;;;;4.82;72.09;103284.22;4993745;28;45368;-37
2024/01/27 08:42:19;;;;;;;;;30.50;24.00;;;;;4.83;71.91;103272.75;5078557;27;45346;-40
2024/01/27 08:44:44;;;;;;;;;34.25;23.25;;;;;4.98;71.79;103288.13;4993981;28;45322;-39
2024/01/27 08:47:10;;;;;;;;;27.00;21.00;;;;;5.04;72.12;103285.28;4993502;28;45212;-39
2024/01/27 08:49:35;;;;;;;;;32.50;29.25;;;;;5.11;71.88;103278.91;4992982;28;45377;-38
2024/01/27 08:52:00;;;;;;;;;32.75;26.00;;;;;5.21;72.00;103277.69;4993662;28;45353;-38
2024/01/27 08:54:26;;;;;;;;;33.50;24.75;;;;;5.26;71.24;103286.31;4993673;28;45292;-38
2024/01/27 08:56:51;;;;;;;;;35.75;31.75;;;;;5.38;71.14;103292.97;4993273;28;47270;-38
2024/01/27 08:59:18;;;;;;;;;44.50;35.25;;;;;5.44;70.94;103281.38;4993252;28;45382;-39
2024/01/27 09:01:43;;;;;;;;;39.50;30.00;;;;;5.41;71.44;103266.47;4993443;28;45218;-37
2024/01/27 09:04:09;;;;;;;;;35.25;28.75;;;;;5.66;71.02;103281.50;4993353;28;45217;-39
2024/01/27 09:06:34;;;;;;;;;42.25;35.75;;;;;5.74;70.61;103285.59;4993204;28;45434;-39
2024/01/27 09:09:00;;;;;;;;;33.50;30.00;;;;;5.81;70.68;103273.00;4993403;28;45432;-40
2024/01/27 09:11:29;;;;;;;;;37.50;29.50;;;;;5.94;70.26;103276.13;4993071;28;45397;-38
2024/01/27 09:13:55;;;;;;;;;37.50;33.25;;;;;6.04;69.76;103269.59;4992349;28;45362;-38
2024/01/27 09:16:21;;;;;;;;;39.75;33.00;;;;;6.06;69.86;103259.81;4992406;28;45953;-36
2024/01/27 09:18:46;;;;;;;;;30.50;26.50;;;;;6.18;69.34;103269.09;4994494;28;45496;-38
2024/01/27 09:21:11;;;;;;;;;44.50;37.25;;;;;6.27;69.05;103260.81;4996079;27;45271;-36
2024/01/27 09:23:37;;;;;;;;;57.75;42.00;;;;;6.36;68.63;103267.53;4995912;28;45517;-38
2024/01/27 09:26:03;;;;;;;;;32.75;27.50;;;;;6.44;68.78;103247.81;4995565;28;45940;-37
2024/01/27 09:28:28;;;;;;;;;37.50;30.75;;;;;6.56;68.64;103243.84;4995927;28;45964;-38
2024/01/27 09:30:53;;;;;;;;;38.00;29.00;;;;;6.80;68.04;103249.97;4995801;28;45452;-37
2024/01/27 09:33:22;;;;;;;;;36.50;30.75;;;;;7.02;68.68;103249.97;4996189;28;45253;-39
2024/01/27 09:35:48;;;;;;;;;44.75;33.00;;;;;7.48;67.24;103261.31;4995616;28;45286;-39
2024/01/27 09:38:14;;;;;;;;;33.75;31.25;;;;;9.67;63.98;103251.03;4995348;28;45579;-38
2024/01/27 09:40:40;;;;;;;;;36.25;30.75;;;;;12.40;56.91;103233.53;4996000;28;45448;-37
2024/01/27 09:43:06;;;;;;;;;38.50;27.50;;;;;14.22;51.42;103227.41;4995921;28;45308;-40
2024/01/27 09:45:32;;;;;;;;;32.00;24.25;;;;;15.41;48.47;103225.75;4995577;28;46444;-39
2024/01/27 09:47:59;;;;;;;;;29.00;22.67;;;;;16.43;45.86;103230.25;4995624;28;45384;-39
2024/01/27 09:50:25;;;;;;;;;28.00;21.33;;;;;17.48;44.10;103232.31;4995309;28;45380;-40
2024/01/27 09:52:50;;;;;;;;;22.33;20.67;;;;;18.30;42.86;103232.34;4995678;28;45419;-39
2024/01/27 09:55:16;;;;;;;;;18.00;15.00;;;;;18.53;39.49;103217.63;4995239;28;45996;-39
2024/01/27 09:57:41;;;;;;;;;9.33;9.33;;;;;19.07;40.24;103224.38;4995457;28;45349;-39
2024/01/27 10:00:11;;;;;;;;;19.00;16.67;;;;;19.51;37.35;103224.78;4995481;28;45384;-39
2024/01/27 10:02:39;;;;;;;;;17.33;15.67;;;;;19.87;37.11;103233.09;4995734;28;45211;-40
2024/01/27 10:05:06;;;;;;;;;16.67;13.67;;;;;20.25;35.28;103198.78;4995067;28;45400;-39
2024/01/27 10:07:32;;;;;;;;;16.67;14.67;;;;;20.97;34.33;103218.66;4995090;28;45404;-41
2024/01/27 10:09:57;;;;;;;;;12.33;12.33;;;;;21.59;34.50;103236.63;4995329;28;45361;-39
2024/01/27 10:12:26;;;;;;;;;14.33;12.67;;;;;21.95;33.58;103233.78;4995734;28;45464;-40
2024/01/27 10:14:52;;;;;;;;;14.00;12.00;;;;;22.32;33.66;103238.06;4995238;28;45436;-38
2024/01/27 10:17:36;;;;;;;;;13.67;11.00;;;;;22.71;32.51;103235.59;4995293;28;45347;-39
2024/01/27 10:20:03;;;;;;;;;17.75;12.25;;;;;22.77;31.58;103237.66;4995036;28;45697;-40
2024/01/27 10:22:36;;;;;;;;;19.50;13.75;;;;;22.71;30.95;103232.91;4995178;28;45541;-40
2024/01/27 10:25:02;;;;;;;;;15.00;11.00;;;;;22.57;30.65;103233.56;4995034;28;47163;-39
2024/01/27 10:27:27;;;;;;;;;16.50;12.50;;;;;22.05;30.88;103229.09;5080286;27;45343;-39
2024/01/27 10:29:55;;;;;;;;;10.00;10.00;;;;;21.75;31.38;103232.34;4994969;28;45280;-39
2024/01/27 10:32:23;;;;;;;;;9.75;8.75;;;;;21.88;30.99;103241.72;4994055;28;45550;-38
2024/01/27 10:34:49;;;;;;;;;13.00;10.00;;;;;22.09;31.37;103235.91;4994558;28;47415;-38
2024/01/27 10:37:15;;;;;;;;;13.50;12.00;;;;;22.21;31.07;103232.94;4994940;28;45299;-37
2024/01/27 10:39:40;;;;;;;;;13.00;10.75;;;;;22.53;31.00;103241.16;4994932;28;45458;-37
2024/01/27 10:42:09;;;;;;;;;12.00;11.75;;;;;22.35;30.30;103235.00;4994991;28;45403;-40
2024/01/27 10:44:39;;;;;;;;;13.25;10.25;;;;;21.55;31.76;103226.28;4994549;28;47712;-39
2024/01/27 10:47:10;;;;;;;;;15.00;11.00;;;;;21.43;31.87;103234.66;4994755;28;45320;-38
2024/01/27 10:49:41;;;;;;;;;13.75;12.25;;;;;21.01;31.58;103233.59;4994715;28;45576;-38
2024/01/27 10:52:13;;;;;;;;;13.50;11.00;;;;;20.24;33.00;103232.22;4994450;27;45366;-40
2024/01/27 10:54:41;;;;;;;;;11.25;8.75;;;;;19.06;33.23;103230.78;4994285;28;46428;-40
2024/01/27 10:57:09;;;;;;;;;19.00;13.00;;;;;18.47;35.18;103230.81;4994710;28;45327;-40
2024/01/27 10:59:35;;;;;;;;;15.75;12.75;;;;;18.48;34.50;103224.44;4994362;27;45575;-38
2024/01/27 11:02:02;;;;;;;;;9.75;8.00;;;;;18.35;34.37;103205.81;4994488;28;45438;-39
2024/01/27 11:04:29;;;;;;;;;9.25;9.25;;;;;18.22;35.50;103206.06;4994115;28;46292;-38
2024/01/27 11:06:56;;;;;;;;;11.00;8.67;;;;;17.95;37.17;103215.63;4994026;28;45472;-42
2024/01/27 11:09:22;;;;;;;;;13.00;9.50;;;;;17.76;35.97;103215.53;4994551;28;45421;-39